Time;durP1;ratioP1;P1;durP2;ratioP2;P2;SDS_P1;SDS_P2;PMS_P1;PMS_P2;Temp;Humidity;BMP_temperature;BMP_pressure;BME280_temperature;BME280_humidity;BME280_pressure;Samples;Min_cycle;Max_cycle;Signal;HPM_P1;HPM_P2
2023/09/26 00:00:33;;;;;;;4.72;4.05;;;;;;;;;;6158278;23;20024;-82
2023/09/26 00:03:01;;;;;;;4.68;3.92;;;;;;;;;;6134188;23;20031;-82
2023/09/26 00:05:35;;;;;;;3.80;3.50;;;;;;;;;;6157604;23;20034;-82
2023/09/26 00:08:03;;;;;;;5.65;5.13;;;;;;;;;;6134506;23;20014;-82
2023/09/26 00:10:31;;;;;;;5.35;4.22;;;;;;;;;;6135085;23;20033;-82
2023/09/26 00:13:03;;;;;;;5.63;4.00;;;;;;;;;;6170181;23;20028;-82
2023/09/26 00:15:31;;;;;;;4.18;3.78;;;;;;;;;;6132742;23;20032;-82
2023/09/26 00:18:00;;;;;;;4.55;4.15;;;;;;;;;;6134365;23;20027;-82
2023/09/26 00:20:28;;;;;;;5.60;5.05;;;;;;;;;;6134601;23;20048;-82
2023/09/26 00:22:55;;;;;;;9.43;5.53;;;;;;;;;;6158828;23;20014;-82
2023/09/26 00:25:22;;;;;;;4.32;3.63;;;;;;;;;;6160459;23;20017;-82
2023/09/26 00:27:54;;;;;;;4.55;3.90;;;;;;;;;;6158323;23;20032;-82
2023/09/26 00:30:26;;;;;;;5.65;4.53;;;;;;;;;;6133889;23;20489;-82
2023/09/26 00:32:53;;;;;;;6.35;4.38;;;;;;;;;;6132951;23;20024;-82
2023/09/26 00:35:23;;;;;;;5.70;5.10;;;;;;;;;;6157133;23;20049;-82
2023/09/26 00:37:54;;;;;;;3.97;3.58;;;;;;;;;;6134344;23;20014;-81
2023/09/26 00:40:22;;;;;;;4.47;4.07;;;;;;;;;;6134189;23;20025;-81
2023/09/26 00:42:49;;;;;;;4.72;4.32;;;;;;;;;;6133413;23;20021;-81
2023/09/26 00:45:17;;;;;;;4.03;3.63;;;;;;;;;;6136698;23;20017;-81
2023/09/26 00:47:44;;;;;;;7.85;4.72;;;;;;;;;;6174631;23;20021;-81
2023/09/26 00:50:16;;;;;;;3.92;3.63;;;;;;;;;;6163427;23;20025;-81
2023/09/26 00:52:47;;;;;;;4.55;3.92;;;;;;;;;;6163481;23;20013;-81
2023/09/26 00:55:18;;;;;;;4.28;3.83;;;;;;;;;;6137650;23;20025;-81
2023/09/26 00:57:48;;;;;;;4.33;3.93;;;;;;;;;;6174453;23;20346;-81
2023/09/26 01:00:19;;;;;;;4.47;4.07;;;;;;;;;;6163156;23;20013;-81
2023/09/26 01:02:46;;;;;;;6.10;3.92;;;;;;;;;;6173536;23;20024;-81
2023/09/26 01:05:13;;;;;;;5.22;4.05;;;;;;;;;;6139040;23;20027;-81
2023/09/26 01:07:47;;;;;;;4.82;4.30;;;;;;;;;;6174911;23;20021;-83
2023/09/26 01:10:14;;;;;;;5.68;4.15;;;;;;;;;;6155801;23;20503;-83
2023/09/26 01:12:42;;;;;;;5.07;4.28;;;;;;;;;;6155220;23;20021;-82
2023/09/26 01:15:11;;;;;;;6.30;5.05;;;;;;;;;;6154522;23;20017;-82
2023/09/26 01:17:39;;;;;;;4.28;3.53;;;;;;;;;;6159030;23;20017;-82
2023/09/26 01:20:13;;;;;;;4.55;4.05;;;;;;;;;;6159650;23;20081;-83
2023/09/26 01:22:46;;;;;;;4.10;3.63;;;;;;;;;;6135023;23;20022;-83
2023/09/26 01:25:20;;;;;;;4.07;3.67;;;;;;;;;;6169167;23;20023;-83
2023/09/26 01:27:47;;;;;;;5.03;4.57;;;;;;;;;;6185799;23;20327;-83
2023/09/26 01:30:17;;;;;;;3.60;3.25;;;;;;;;;;6135593;23;20032;-83
2023/09/26 01:32:47;;;;;;;4.85;4.32;;;;;;;;;;6158908;23;20014;-83
2023/09/26 01:35:15;;;;;;;4.40;4.00;;;;;;;;;;6135735;23;20032;-84
2023/09/26 01:37:43;;;;;;;6.85;5.07;;;;;;;;;;6160449;23;20018;-83
2023/09/26 01:40:11;;;;;;;5.15;4.60;;;;;;;;;;6160804;23;20017;-83
2023/09/26 01:42:40;;;;;;;6.25;4.20;;;;;;;;;;6160266;23;20014;-83
2023/09/26 01:45:10;;;;;;;4.43;4.03;;;;;;;;;;6170330;23;20024;-83
2023/09/26 01:47:46;;;;;;;6.55;4.60;;;;;;;;;;6135322;23;20450;-83
2023/09/26 01:50:19;;;;;;;5.25;4.28;;;;;;;;;;6137862;23;20024;-83
2023/09/26 01:52:47;;;;;;;4.90;4.40;;;;;;;;;;6164028;23;20028;-83
2023/09/26 01:55:19;;;;;;;4.45;3.33;;;;;;;;;;6161856;23;20024;-83
2023/09/26 01:57:51;;;;;;;3.97;3.30;;;;;;;;;;6138257;23;20024;-83
2023/09/26 02:00:19;;;;;;;4.10;3.13;;;;;;;;;;6162728;23;20017;-83
2023/09/26 02:02:49;;;;;;;4.35;3.95;;;;;;;;;;6162549;23;20036;-83
2023/09/26 02:05:19;;;;;;;4.13;3.72;;;;;;;;;;6195851;23;20018;-83
2023/09/26 02:07:46;;;;;;;5.28;3.83;;;;;;;;;;6135973;23;20354;-83
2023/09/26 02:10:19;;;;;;;7.13;4.70;;;;;;;;;;6161705;23;20021;-83
2023/09/26 02:12:50;;;;;;;6.15;4.57;;;;;;;;;;6137245;23;20027;-83
2023/09/26 02:15:22;;;;;;;5.80;4.03;;;;;;;;;;6137926;23;20026;-83
2023/09/26 02:17:49;;;;;;;7.18;4.30;;;;;;;;;;6137600;23;20022;-83
2023/09/26 02:20:19;;;;;;;4.35;3.95;;;;;;;;;;6136731;23;20021;-83
2023/09/26 02:22:50;;;;;;;4.05;3.58;;;;;;;;;;6137891;23;20022;-83
2023/09/26 02:25:20;;;;;;;4.05;3.67;;;;;;;;;;6162808;23;20021;-83
2023/09/26 02:27:53;;;;;;;3.67;3.38;;;;;;;;;;6138350;23;20032;-83
2023/09/26 02:30:25;;;;;;;7.07;4.97;;;;;;;;;;6137056;23;20020;-83
2023/09/26 02:32:52;;;;;;;6.38;4.22;;;;;;;;;;6137420;23;20018;-83
2023/09/26 02:35:22;;;;;;;4.07;3.67;;;;;;;;;;6136110;23;20021;-83
2023/09/26 02:37:52;;;;;;;5.25;3.38;;;;;;;;;;6160052;23;20044;-83
2023/09/26 02:40:19;;;;;;;4.20;3.80;;;;;;;;;;6160810;23;20020;-83
2023/09/26 02:42:50;;;;;;;4.72;3.83;;;;;;;;;;6137226;23;20018;-83
2023/09/26 02:45:17;;;;;;;7.65;4.00;;;;;;;;;;6137800;23;20017;-83
2023/09/26 02:47:45;;;;;;;4.60;3.83;;;;;;;;;;6138107;23;20017;-83
2023/09/26 02:50:15;;;;;;;5.05;3.50;;;;;;;;;;6171428;23;20021;-83
2023/09/26 02:52:45;;;;;;;30.80;4.18;;;;;;;;;;6160729;23;20105;-83
2023/09/26 02:55:12;;;;;;;7.13;3.20;;;;;;;;;;6160082;23;20024;-83
2023/09/26 02:57:40;;;;;;;3.58;3.10;;;;;;;;;;6135746;23;20026;-83
2023/09/26 03:00:16;;;;;;;5.22;3.85;;;;;;;;;;6136187;23;20013;-83
2023/09/26 03:02:47;;;;;;;8.10;3.65;;;;;;;;;;6136300;23;20027;-83
2023/09/26 03:05:15;;;;;;;5.38;4.10;;;;;;;;;;6137400;23;20017;-83
2023/09/26 03:07:44;;;;;;;4.03;3.72;;;;;;;;;;6161801;23;20056;-83
2023/09/26 03:10:11;;;;;;;5.18;3.78;;;;;;;;;;6136318;23;20022;-83
2023/09/26 03:12:44;;;;;;;4.45;3.58;;;;;;;;;;6160792;23;20389;-83
2023/09/26 03:15:12;;;;;;;6.55;3.33;;;;;;;;;;6137056;23;20021;-83
2023/09/26 03:17:39;;;;;;;4.35;3.72;;;;;;;;;;6113296;23;20017;-83
2023/09/26 03:20:10;;;;;;;5.05;3.22;;;;;;;;;;6160150;23;20013;-83
2023/09/26 03:22:39;;;;;;;6.03;3.92;;;;;;;;;;6160452;23;20454;-83
2023/09/26 03:25:07;;;;;;;8.40;3.75;;;;;;;;;;6135829;23;20024;-83
2023/09/26 03:27:39;;;;;;;6.35;3.70;;;;;;;;;;6160292;23;20018;-83
2023/09/26 03:30:09;;;;;;;3.40;3.10;;;;;;;;;;6159973;23;20066;-83
2023/09/26 03:32:37;;;;;;;3.92;3.55;;;;;;;;;;6135743;23;20346;-83
2023/09/26 03:35:06;;;;;;;5.15;4.32;;;;;;;;;;6134951;23;20028;-83
2023/09/26 03:37:35;;;;;;;4.30;3.85;;;;;;;;;;6160596;23;20022;-83
2023/09/26 03:40:02;;;;;;;3.65;3.35;;;;;;;;;;6135241;23;20022;-83
2023/09/26 03:42:29;;;;;;;7.82;4.15;;;;;;;;;;6159746;23;20013;-83
2023/09/26 03:44:59;;;;;;;4.80;4.00;;;;;;;;;;6160835;23;20027;-83
2023/09/26 03:47:26;;;;;;;5.90;3.83;;;;;;;;;;6160744;23;20025;-83
2023/09/26 03:49:54;;;;;;;4.10;3.08;;;;;;;;;;6135878;23;20025;-83
2023/09/26 03:52:23;;;;;;;8.05;4.38;;;;;;;;;;6161541;23;20017;-83
2023/09/26 03:54:54;;;;;;;3.55;3.20;;;;;;;;;;6158660;23;20021;-83
2023/09/26 03:57:21;;;;;;;4.97;3.75;;;;;;;;;;6131040;23;20027;-83
2023/09/26 03:59:51;;;;;;;6.18;4.40;;;;;;;;;;6129309;23;20018;-83
2023/09/26 04:02:18;;;;;;;3.38;2.97;;;;;;;;;;6130189;23;20021;-83
2023/09/26 04:04:46;;;;;;;4.05;3.65;;;;;;;;;;6130472;23;20517;-83
2023/09/26 04:07:15;;;;;;;4.63;3.38;;;;;;;;;;6156227;23;20022;-83
2023/09/26 04:09:42;;;;;;;3.33;2.95;;;;;;;;;;6159889;23;20018;-84
2023/09/26 04:12:13;;;;;;;4.65;3.78;;;;;;;;;;6140046;23;20036;-83
2023/09/26 04:14:41;;;;;;;7.80;4.10;;;;;;;;;;6144377;23;20029;-83
2023/09/26 04:17:08;;;;;;;5.93;4.38;;;;;;;;;;6168659;23;20013;-83
2023/09/26 04:19:40;;;;;;;6.50;4.65;;;;;;;;;;6173715;23;20420;-83
2023/09/26 04:22:07;;;;;;;5.90;5.30;;;;;;;;;;6161848;23;20025;-83
2023/09/26 04:24:34;;;;;;;3.95;3.55;;;;;;;;;;6160471;23;20013;-83
2023/09/26 04:27:01;;;;;;;4.15;3.72;;;;;;;;;;6159960;23;20024;-83
2023/09/26 04:29:30;;;;;;;6.53;4.10;;;;;;;;;;6133789;23;20018;-83
2023/09/26 04:32:00;;;;;;;6.53;3.88;;;;;;;;;;6137324;23;20032;-83
2023/09/26 04:34:29;;;;;;;4.78;4.38;;;;;;;;;;6134180;23;20025;-84
2023/09/26 04:36:58;;;;;;;6.70;3.72;;;;;;;;;;6163167;23;20025;-83
2023/09/26 04:39:28;;;;;;;5.10;3.92;;;;;;;;;;6158986;23;20028;-83
2023/09/26 04:41:58;;;;;;;5.53;5.00;;;;;;;;;;6131978;23;20070;-83
2023/09/26 04:44:25;;;;;;;5.03;3.58;;;;;;;;;;6132155;23;20018;-84
2023/09/26 04:46:53;;;;;;;4.20;3.80;;;;;;;;;;6157472;23;20028;-83
2023/09/26 04:49:21;;;;;;;4.97;3.97;;;;;;;;;;6132367;23;20653;-83
2023/09/26 04:51:50;;;;;;;6.15;4.60;;;;;;;;;;6134808;23;20021;-81
2023/09/26 04:54:20;;;;;;;4.10;3.67;;;;;;;;;;6133180;23;20017;-83
2023/09/26 04:56:47;;;;;;;4.32;3.92;;;;;;;;;;6156449;23;20018;-83
2023/09/26 04:59:15;;;;;;;5.45;4.60;;;;;;;;;;6167625;23;20010;-83
2023/09/26 05:01:42;;;;;;;4.80;3.33;;;;;;;;;;6131280;23;20017;-83
2023/09/26 05:04:13;;;;;;;4.25;3.85;;;;;;;;;;6131287;23;20496;-83
2023/09/26 05:06:42;;;;;;;4.35;3.55;;;;;;;;;;6129982;23;20031;-83
2023/09/26 05:09:12;;;;;;;5.03;3.85;;;;;;;;;;6155112;23;20531;-83
2023/09/26 05:11:39;;;;;;;4.18;3.63;;;;;;;;;;6131385;23;20021;-83
2023/09/26 05:14:06;;;;;;;6.10;4.30;;;;;;;;;;6132175;23;20022;-83
2023/09/26 05:16:33;;;;;;;5.28;4.57;;;;;;;;;;6157305;23;20022;-83
2023/09/26 05:19:03;;;;;;;4.57;4.18;;;;;;;;;;6158047;23;20505;-83
2023/09/26 05:21:34;;;;;;;4.88;4.40;;;;;;;;;;6156328;23;20014;-83
2023/09/26 05:24:04;;;;;;;3.70;3.38;;;;;;;;;;6132877;23;20078;-83
2023/09/26 05:26:32;;;;;;;4.85;4.38;;;;;;;;;;6158268;23;20024;-83
2023/09/26 05:28:59;;;;;;;4.57;3.65;;;;;;;;;;6158880;23;20017;-83
2023/09/26 05:31:29;;;;;;;5.15;3.60;;;;;;;;;;6128982;23;20025;-83
2023/09/26 05:33:59;;;;;;;4.78;3.28;;;;;;;;;;6156143;23;20021;-83
2023/09/26 05:36:29;;;;;;;3.50;3.20;;;;;;;;;;6156687;23;20017;-83
2023/09/26 05:38:59;;;;;;;4.63;3.20;;;;;;;;;;6155642;23;20032;-83
2023/09/26 05:41:27;;;;;;;5.13;3.70;;;;;;;;;;6151528;23;20017;-83
2023/09/26 05:43:54;;;;;;;3.78;3.47;;;;;;;;;;6158655;23;20028;-84
2023/09/26 05:46:26;;;;;;;3.45;2.95;;;;;;;;;;6156435;23;20642;-83
2023/09/26 05:48:53;;;;;;;6.07;2.97;;;;;;;;;;6161273;23;20010;-83
2023/09/26 05:51:26;;;;;;;4.88;4.05;;;;;;;;;;6170933;23;20014;-83
2023/09/26 05:53:53;;;;;;;4.25;3.85;;;;;;;;;;6134158;23;20043;-83
2023/09/26 05:56:21;;;;;;;4.70;4.07;;;;;;;;;;6132182;23;20331;-83
2023/09/26 05:58:51;;;;;;;4.07;3.67;;;;;;;;;;6130543;23;20028;-83
2023/09/26 06:01:21;;;;;;;4.55;3.78;;;;;;;;;;6130507;23;20021;-83
2023/09/26 06:03:48;;;;;;;6.07;4.93;;;;;;;;;;6155368;23;20466;-83
2023/09/26 06:06:15;;;;;;;4.25;3.42;;;;;;;;;;6155095;23;20568;-83
2023/09/26 06:08:46;;;;;;;4.15;3.75;;;;;;;;;;6103515;23;20485;-83
2023/09/26 06:11:14;;;;;;;4.63;4.18;;;;;;;;;;6127944;23;20025;-83
2023/09/26 06:13:44;;;;;;;5.95;4.30;;;;;;;;;;6105666;23;20017;-83
2023/09/26 06:16:16;;;;;;;4.63;3.72;;;;;;;;;;6105095;23;20022;-84
2023/09/26 06:18:44;;;;;;;5.57;3.83;;;;;;;;;;6106185;23;20017;-84
2023/09/26 06:21:18;;;;;;;3.58;3.03;;;;;;;;;;6105566;23;20508;-83
2023/09/26 06:23:48;;;;;;;5.55;4.15;;;;;;;;;;6131448;23;20031;-83
2023/09/26 06:26:15;;;;;;;6.18;5.20;;;;;;;;;;6131296;23;20036;-83
2023/09/26 06:28:47;;;;;;;6.63;5.13;;;;;;;;;;6130331;23;20026;-83
2023/09/26 06:31:14;;;;;;;6.18;5.03;;;;;;;;;;6130254;23;20014;-84
2023/09/26 06:33:41;;;;;;;6.13;5.10;;;;;;;;;;6106588;23;20381;-83
2023/09/26 06:36:11;;;;;;;5.57;4.88;;;;;;;;;;6156864;23;20032;-83
2023/09/26 06:38:41;;;;;;;4.95;3.75;;;;;;;;;;6104878;23;20032;-83
2023/09/26 06:41:14;;;;;;;7.70;4.73;;;;;;;;;;6140667;23;20025;-84
2023/09/26 06:43:41;;;;;;;4.40;4.00;;;;;;;;;;6105665;23;20358;-84
2023/09/26 06:46:12;;;;;;;5.00;3.92;;;;;;;;;;6130744;23;20021;-84
2023/09/26 06:48:41;;;;;;;9.70;4.13;;;;;;;;;;6129368;23;20465;-83
2023/09/26 06:51:09;;;;;;;3.60;3.30;;;;;;;;;;6152796;23;20021;-84
2023/09/26 06:53:37;;;;;;;3.97;3.58;;;;;;;;;;6126333;23;20022;-84
2023/09/26 06:56:06;;;;;;;4.53;4.18;;;;;;;;;;6154238;23;20350;-84
2023/09/26 06:58:37;;;;;;;4.00;3.45;;;;;;;;;;6129200;23;20025;-83
2023/09/26 07:01:14;;;;;;;4.00;3.60;;;;;;;;;;6104539;23;20022;-83
2023/09/26 07:03:42;;;;;;;4.88;3.42;;;;;;;;;;6137083;23;20018;-83
2023/09/26 07:06:13;;;;;;;5.65;3.25;;;;;;;;;;6128038;23;20018;-83
2023/09/26 07:08:44;;;;;;;3.33;3.03;;;;;;;;;;6101731;23;20462;-84
2023/09/26 07:11:11;;;;;;;5.43;3.72;;;;;;;;;;6127283;23;20028;-84
2023/09/26 07:13:41;;;;;;;3.42;3.08;;;;;;;;;;6128379;23;20028;-84
2023/09/26 07:16:10;;;;;;;3.10;2.50;;;;;;;;;;6127387;23;20077;-84
2023/09/26 07:18:41;;;;;;;4.20;3.17;;;;;;;;;;6128268;23;20028;-83
2023/09/26 07:21:09;;;;;;;3.17;2.85;;;;;;;;;;6151876;23;20013;-84
2023/09/26 07:23:37;;;;;;;6.45;3.50;;;;;;;;;;6127951;23;20028;-84
2023/09/26 07:26:08;;;;;;;3.72;2.72;;;;;;;;;;6127010;23;20650;-83
2023/09/26 07:28:36;;;;;;;3.40;2.90;;;;;;;;;;6128349;23;20381;-84
2023/09/26 07:31:05;;;;;;;3.03;2.83;;;;;;;;;;6127995;23;20025;-84
2023/09/26 07:33:35;;;;;;;3.38;3.03;;;;;;;;;;6153061;23;20350;-84
2023/09/26 07:53:23;;;;;;;3.43;3.13;;;;;;;;;;6199952;23;20723;-84
2023/09/26 10:20:37;;;;;;;4.45;4.05;;;;;;;;;;6184917;23;20066;-85
2023/09/26 10:23:11;;;;;;;5.43;4.53;;;;;;;;;;6224601;23;20012;-85
2023/09/26 10:25:38;;;;;;;8.88;4.28;;;;;;;;;;6161934;23;20334;-85
2023/09/26 10:28:07;;;;;;;4.40;4.00;;;;;;;;;;6138207;23;20504;-85
2023/09/26 10:30:43;;;;;;;3.80;3.50;;;;;;;;;;6186853;23;20436;-85
2023/09/26 10:33:10;;;;;;;3.90;3.55;;;;;;;;;;6163186;23;20013;-85
2023/09/26 10:35:44;;;;;;;3.92;3.58;;;;;;;;;;6162560;23;20017;-85
2023/09/26 10:38:18;;;;;;;6.15;5.05;;;;;;;;;;6187012;23;20016;-85
2023/09/26 10:40:46;;;;;;;5.15;4.65;;;;;;;;;;6162655;23;20020;-84
2023/09/26 10:43:14;;;;;;;4.03;3.55;;;;;;;;;;6161725;23;20016;-85
2023/09/26 10:45:45;;;;;;;4.55;4.15;;;;;;;;;;6139118;23;20020;-84
2023/09/26 10:48:19;;;;;;;5.32;3.45;;;;;;;;;;6224112;23;20019;-85
2023/09/26 10:50:48;;;;;;;5.93;3.92;;;;;;;;;;6224470;23;20024;-85
2023/09/26 10:53:18;;;;;;;4.88;4.35;;;;;;;;;;6162263;23;20016;-85
2023/09/26 10:55:48;;;;;;;5.03;4.53;;;;;;;;;;6188406;23;20016;-85
2023/09/26 10:58:21;;;;;;;7.53;4.57;;;;;;;;;;6230882;23;20020;-85
2023/09/26 11:00:51;;;;;;;4.80;3.55;;;;;;;;;;6217732;23;20016;-85
2023/09/26 11:03:19;;;;;;;11.27;5.93;;;;;;;;;;6223038;23;20027;-85
2023/09/26 11:20:28;;;;;;;5.47;3.33;;;;;;;;;;6204873;23;20028;-85
2023/09/26 11:23:33;;;;;;;4.07;3.70;;;;;;;;;;6213276;23;20013;-85
2023/09/26 11:26:03;;;;;;;3.92;3.63;;;;;;;;;;6162711;23;20031;-85
2023/09/26 11:28:35;;;;;;;6.55;3.58;;;;;;;;;;6197004;23;20012;-85
2023/09/26 11:31:02;;;;;;;4.95;3.83;;;;;;;;;;6162527;23;20016;-85
2023/09/26 11:33:30;;;;;;;4.45;3.67;;;;;;;;;;6161212;23;20013;-85
2023/09/26 13:28:09;;;;;;;2.15;1.95;;;;;;;;;;6214333;23;20009;-87
2023/09/26 13:30:37;;;;;;;3.58;2.25;;;;;;;;;;6214681;23;20008;-86
2023/09/26 13:33:04;;;;;;;3.80;1.75;;;;;;;;;;6190068;23;20024;-86
2023/09/26 13:45:46;;;;;;;2.50;2.30;;;;;;;;;;6136800;23;20033;-81
2023/09/26 13:48:40;;;;;;;2.13;1.98;;;;;;;;;;6168050;23;20020;-82
2023/09/26 13:51:30;;;;;;;2.33;2.13;;;;;;;;;;6195100;23;20016;-82
2023/09/26 13:54:12;;;;;;;3.05;2.13;;;;;;;;;;6200859;23;20023;-82
2023/09/26 13:56:55;;;;;;;3.20;2.20;;;;;;;;;;6167019;23;20035;-82
2023/09/26 13:59:51;;;;;;;;;;;;;;;;;;;;;
2023/09/26 14:02:38;;;;;;;4.30;2.92;;;;;;;;;;6227318;23;20013;-82
2023/09/26 14:05:31;;;;;;;2.80;1.90;;;;;;;;;;6227924;23;20013;-82
2023/09/26 14:08:13;;;;;;;6.60;2.30;;;;;;;;;;6192883;23;20012;-82
2023/09/26 14:11:38;;;;;;;;;;;;;;;;;;;;;
2023/09/26 14:14:25;;;;;;;2.58;2.38;;;;;;;;;;6170910;23;20017;-83
2023/09/26 14:17:44;;;;;;;;;;;;;;;;;;;;;
2023/09/26 14:21:03;;;;;;;;;;;;;;;;;;;;;
2023/09/26 14:23:36;;;;;;;2.97;2.67;;;;;;;;;;6183965;23;20458;-83
2023/09/26 14:26:29;;;;;;;2.88;2.53;;;;;;;;;;6188295;23;20027;-83
2023/09/26 14:29:33;;;;;;;2.78;2.25;;;;;;;;;;6192103;23;20041;-83
2023/09/26 14:32:50;;;;;;;;;;;;;;;;;;;;;
2023/09/26 14:42:34;;;;;;;3.53;2.90;;;;;;;;;;6211095;23;20013;-83
2023/09/26 14:45:41;;;;;;;;;;;;;;;;;;;;;
2023/09/26 14:48:58;;;;;;;2.95;2.60;;;;;;;;;;5984925;23;20031;-83
2023/09/26 14:56:20;;;;;;;;;;;;;;;;;;;;;
2023/09/26 14:59:28;;;;;;;6.22;2.40;;;;;;;;;;6011791;23;20587;-83
2023/09/26 15:01:57;;;;;;;2.22;2.03;;;;;;;;;;5986528;23;20031;-83
2023/09/26 15:05:14;;;;;;;2.90;2.47;;;;;;;;;;6041948;23;20029;-83
2023/09/26 15:11:19;;;;;;;2.85;2.58;;;;;;;;;;5821803;24;20026;-84
2023/09/26 15:13:57;;;;;;;2.38;2.17;;;;;;;;;;6088200;23;20337;-83
2023/09/26 15:16:57;;;;;;;;;;;;;;;;;;;;;
2023/09/26 15:20:00;;;;;;;2.65;1.73;;;;;;;;;;6049945;23;20082;-83
2023/09/26 15:22:45;;;;;;;3.13;2.83;;;;;;;;;;6102488;23;20022;-83
2023/09/26 15:25:44;;;;;;;;;;;;;;;;;;;;;
2023/09/26 15:28:48;;;;;;;3.67;2.65;;;;;;;;;;6191267;23;20561;-83
2023/09/26 15:31:25;;;;;;;2.05;1.80;;;;;;;;;;6214818;23;20357;-83
2023/09/26 15:34:02;;;;;;;2.55;2.35;;;;;;;;;;6163826;23;20020;-83
2023/09/26 15:36:29;;;;;;;2.92;2.55;;;;;;;;;;6187980;23;20021;-83
2023/09/26 15:39:10;;;;;;;;;;;;;;;;;;;;;
2023/09/26 15:46:46;;;;;;;;;;;;;;;;;;;;;
2023/09/26 16:34:07;;;;;;;;;;;;;;;;;;;;;
2023/09/26 16:41:47;;;;;;;2.63;2.40;;;;;;;;;;5960303;23;20046;-82
2023/09/26 16:44:25;;;;;;;2.78;2.58;;;;;;;;;;5993482;23;20061;-82
2023/09/26 16:46:58;;;;;;;3.72;2.38;;;;;;;;;;6124784;23;20441;-83
2023/09/26 16:49:28;;;;;;;3.38;2.45;;;;;;;;;;6187457;23;20020;-82
2023/09/26 16:51:55;;;;;;;2.60;2.40;;;;;;;;;;6214982;23;20035;-83
2023/09/26 16:54:22;;;;;;;3.10;2.45;;;;;;;;;;6187740;23;20027;-83
2023/09/26 16:56:51;;;;;;;3.28;2.97;;;;;;;;;;6186676;23;20016;-83
2023/09/26 16:59:21;;;;;;;5.30;2.72;;;;;;;;;;6222008;23;20024;-83
2023/09/26 17:01:48;;;;;;;4.70;2.88;;;;;;;;;;6186677;23;20028;-83
2023/09/26 17:04:16;;;;;;;5.25;3.55;;;;;;;;;;6163941;23;20012;-83
2023/09/26 17:06:44;;;;;;;4.95;2.75;;;;;;;;;;6189737;23;20013;-83
2023/09/26 17:09:22;;;;;;;4.90;2.83;;;;;;;;;;6188806;23;20023;-82
2023/09/26 17:12:00;;;;;;;3.97;2.60;;;;;;;;;;6187823;23;20020;-82
2023/09/26 17:14:27;;;;;;;3.72;3.10;;;;;;;;;;6162693;23;20016;-82
2023/09/26 17:16:55;;;;;;;3.10;2.80;;;;;;;;;;6187542;23;20028;-82
2023/09/26 17:19:24;;;;;;;3.50;3.20;;;;;;;;;;6197725;23;20325;-82
2023/09/26 17:21:54;;;;;;;4.38;2.75;;;;;;;;;;6189671;23;20021;-83
2023/09/26 17:24:28;;;;;;;3.17;2.70;;;;;;;;;;6164922;23;20016;-83
2023/09/26 17:26:55;;;;;;;8.27;3.03;;;;;;;;;;6166911;23;20016;-83
2023/09/26 17:29:24;;;;;;;2.85;2.50;;;;;;;;;;6167346;23;20020;-82
2023/09/26 17:31:51;;;;;;;4.57;2.88;;;;;;;;;;6219451;23;20349;-83
2023/09/26 17:34:19;;;;;;;3.42;3.08;;;;;;;;;;6167542;23;20017;-81
2023/09/26 17:36:46;;;;;;;3.13;2.83;;;;;;;;;;6165858;23;20021;-82
2023/09/26 17:39:13;;;;;;;4.47;3.85;;;;;;;;;;6189062;23;20016;-83
2023/09/26 17:41:43;;;;;;;4.72;3.53;;;;;;;;;;6192246;23;20047;-82
2023/09/26 17:44:10;;;;;;;3.35;3.05;;;;;;;;;;6167502;23;20012;-83
2023/09/26 17:46:42;;;;;;;3.63;2.88;;;;;;;;;;6163753;23;20457;-82
2023/09/26 17:49:09;;;;;;;9.52;3.38;;;;;;;;;;6190777;23;20012;-82
2023/09/26 17:51:38;;;;;;;4.32;3.92;;;;;;;;;;6164211;23;20012;-82
2023/09/26 17:54:05;;;;;;;4.00;3.20;;;;;;;;;;6165572;23;20035;-82
2023/09/26 17:56:35;;;;;;;9.95;3.22;;;;;;;;;;6167769;23;20021;-82
2023/09/26 17:59:02;;;;;;;5.55;3.25;;;;;;;;;;6164180;23;20030;-82
2023/09/26 18:01:32;;;;;;;3.97;3.58;;;;;;;;;;6218179;23;20042;-82
2023/09/26 18:04:00;;;;;;;5.35;4.15;;;;;;;;;;6167808;23;20012;-82
2023/09/26 18:06:28;;;;;;;4.15;3.00;;;;;;;;;;6167723;23;20024;-82
2023/09/26 18:08:55;;;;;;;3.60;2.47;;;;;;;;;;6191691;23;20031;-82
2023/09/26 18:11:25;;;;;;;3.53;3.22;;;;;;;;;;6218909;23;20027;-82
2023/09/26 18:13:57;;;;;;;3.65;2.45;;;;;;;;;;6202548;23;20031;-82
2023/09/26 18:16:27;;;;;;;3.03;2.72;;;;;;;;;;6168257;23;20031;-83
2023/09/26 18:18:54;;;;;;;3.65;3.35;;;;;;;;;;6168255;23;20106;-83
2023/09/26 18:21:23;;;;;;;3.33;3.03;;;;;;;;;;6192115;23;20020;-83
2023/09/26 18:23:53;;;;;;;4.13;3.15;;;;;;;;;;6191920;23;20349;-82
2023/09/26 18:26:25;;;;;;;3.35;3.05;;;;;;;;;;6190562;23;20318;-83
2023/09/26 18:28:52;;;;;;;3.50;3.20;;;;;;;;;;6192268;23;20017;-82
2023/09/26 18:31:22;;;;;;;4.00;3.67;;;;;;;;;;6165421;23;20031;-82
2023/09/26 18:33:53;;;;;;;3.90;3.60;;;;;;;;;;6188102;23;20033;-82
2023/09/26 18:36:20;;;;;;;4.00;3.60;;;;;;;;;;6167227;23;20024;-82
2023/09/26 18:38:48;;;;;;;4.90;4.45;;;;;;;;;;6216218;23;20022;-82
2023/09/26 18:41:16;;;;;;;4.43;3.63;;;;;;;;;;6167804;23;20023;-82
2023/09/26 18:43:46;;;;;;;3.55;3.25;;;;;;;;;;6166134;23;20342;-83
2023/09/26 18:46:13;;;;;;;3.65;3.33;;;;;;;;;;6166647;23;20469;-83
2023/09/26 18:48:40;;;;;;;3.35;2.97;;;;;;;;;;6190386;23;20024;-83
2023/09/26 18:51:08;;;;;;;6.13;5.45;;;;;;;;;;6164636;23;20021;-83
2023/09/26 18:53:35;;;;;;;4.93;4.45;;;;;;;;;;6165339;23;20023;-83
2023/09/26 18:56:08;;;;;;;3.67;3.38;;;;;;;;;;6190187;23;20021;-83
2023/09/26 18:58:35;;;;;;;3.55;2.83;;;;;;;;;;6166940;23;20468;-82
2023/09/26 19:01:03;;;;;;;5.30;4.05;;;;;;;;;;6192709;23;20026;-83
2023/09/26 19:03:32;;;;;;;4.57;4.18;;;;;;;;;;6193785;23;20027;-83
2023/09/26 19:06:02;;;;;;;4.97;3.88;;;;;;;;;;6227582;23;20013;-83
2023/09/26 19:08:32;;;;;;;6.07;4.25;;;;;;;;;;6192802;23;20013;-83
2023/09/26 19:11:01;;;;;;;3.75;3.45;;;;;;;;;;6217207;23;20020;-83
2023/09/26 19:13:33;;;;;;;4.90;4.35;;;;;;;;;;6191616;23;20463;-83
2023/09/26 19:16:00;;;;;;;4.50;3.72;;;;;;;;;;6168072;23;20012;-82
2023/09/26 19:18:27;;;;;;;4.18;3.72;;;;;;;;;;6166934;23;20021;-82
2023/09/26 19:20:55;;;;;;;3.95;3.65;;;;;;;;;;6192463;23;20016;-82
2023/09/26 19:23:24;;;;;;;4.22;3.83;;;;;;;;;;6167769;23;20020;-83
2023/09/26 19:25:54;;;;;;;4.80;3.83;;;;;;;;;;6191427;23;20016;-83
2023/09/26 19:28:23;;;;;;;5.30;4.30;;;;;;;;;;6166845;23;20028;-83
2023/09/26 19:30:54;;;;;;;7.78;3.80;;;;;;;;;;6166450;23;20020;-82
2023/09/26 19:33:24;;;;;;;4.93;4.10;;;;;;;;;;6228839;23;20012;-82
2023/09/26 19:36:01;;;;;;;5.22;4.32;;;;;;;;;;6167297;23;20017;-82
2023/09/26 19:38:28;;;;;;;5.20;3.53;;;;;;;;;;6152936;23;20024;-82
2023/09/26 19:40:56;;;;;;;6.78;3.75;;;;;;;;;;6102153;23;20044;-82
2023/09/26 19:43:23;;;;;;;6.72;3.40;;;;;;;;;;6153523;23;20021;-82
2023/09/26 19:45:50;;;;;;;4.22;3.83;;;;;;;;;;6104338;23;20018;-82
2023/09/26 19:48:19;;;;;;;5.07;4.55;;;;;;;;;;6105294;23;20021;-82
2023/09/26 19:50:46;;;;;;;5.95;4.47;;;;;;;;;;6128658;23;20346;-82
2023/09/26 19:53:16;;;;;;;4.50;4.07;;;;;;;;;;6127730;23;20025;-82
2023/09/26 19:55:46;;;;;;;5.22;3.47;;;;;;;;;;6103602;23;20021;-82
2023/09/26 19:58:15;;;;;;;5.43;4.43;;;;;;;;;;6105823;23;20029;-82
2023/09/26 20:00:46;;;;;;;5.55;4.38;;;;;;;;;;6130408;23;20032;-82
2023/09/26 20:03:15;;;;;;;5.22;4.03;;;;;;;;;;6130517;23;20489;-82
2023/09/26 20:05:48;;;;;;;4.82;3.80;;;;;;;;;;6130328;23;20022;-82
2023/09/26 20:08:16;;;;;;;5.10;4.70;;;;;;;;;;6103903;23;20354;-82
2023/09/26 20:10:44;;;;;;;4.15;3.75;;;;;;;;;;6163846;23;20024;-82
2023/09/26 20:13:14;;;;;;;5.13;3.83;;;;;;;;;;6130639;23;20021;-81
2023/09/26 20:15:41;;;;;;;5.03;4.47;;;;;;;;;;6129986;23;20330;-82
2023/09/26 20:18:11;;;;;;;5.32;4.03;;;;;;;;;;6130037;23;20018;-82
2023/09/26 20:20:40;;;;;;;4.43;4.03;;;;;;;;;;6139992;23;20028;-83
2023/09/26 20:23:09;;;;;;;5.57;4.60;;;;;;;;;;6105847;23;20137;-82
2023/09/26 20:25:36;;;;;;;5.00;4.50;;;;;;;;;;6156898;23;20010;-82
2023/09/26 20:28:06;;;;;;;5.50;3.65;;;;;;;;;;6105788;23;20017;-82
2023/09/26 20:30:36;;;;;;;5.75;5.18;;;;;;;;;;6131067;23;20473;-83
2023/09/26 20:33:08;;;;;;;4.72;4.28;;;;;;;;;;6155796;23;20035;-82
2023/09/26 20:35:36;;;;;;;4.18;3.72;;;;;;;;;;6130799;23;20043;-82
2023/09/26 20:38:05;;;;;;;4.75;4.32;;;;;;;;;;6150252;23;20023;-82
2023/09/26 20:40:36;;;;;;;5.05;4.47;;;;;;;;;;6130435;23;20457;-82
2023/09/26 20:43:04;;;;;;;4.55;4.15;;;;;;;;;;6106242;23;20024;-81
2023/09/26 20:45:32;;;;;;;11.07;5.28;;;;;;;;;;6106757;23;20064;-82
2023/09/26 20:48:03;;;;;;;5.47;4.60;;;;;;;;;;6131495;23;20108;-82
2023/09/26 20:50:30;;;;;;;6.18;5.45;;;;;;;;;;6130724;23;20018;-82
2023/09/26 20:53:00;;;;;;;17.50;4.95;;;;;;;;;;6106492;23;20029;-81
2023/09/26 20:55:27;;;;;;;7.03;5.32;;;;;;;;;;6134886;23;20066;-82
2023/09/26 20:57:56;;;;;;;7.28;5.07;;;;;;;;;;6134042;23;20036;-82
2023/09/26 21:00:23;;;;;;;5.78;5.25;;;;;;;;;;6107899;23;20345;-82
2023/09/26 21:02:50;;;;;;;6.53;5.07;;;;;;;;;;6109259;23;20017;-82
2023/09/26 21:05:22;;;;;;;7.35;4.38;;;;;;;;;;6159520;23;20044;-82
2023/09/26 21:07:50;;;;;;;4.93;4.13;;;;;;;;;;6134620;23;20021;-82
2023/09/26 21:10:17;;;;;;;6.28;5.00;;;;;;;;;;6108422;23;20024;-82
2023/09/26 21:12:47;;;;;;;5.22;4.35;;;;;;;;;;6109134;23;20021;-82
2023/09/26 21:15:18;;;;;;;5.68;5.03;;;;;;;;;;6132970;23;20018;-81
2023/09/26 21:17:45;;;;;;;13.00;5.95;;;;;;;;;;6110315;23;20022;-82
2023/09/26 21:20:14;;;;;;;4.63;4.22;;;;;;;;;;6134346;23;20025;-82
2023/09/26 21:22:42;;;;;;;6.63;5.50;;;;;;;;;;6134816;23;20023;-82
2023/09/26 21:25:09;;;;;;;6.45;5.07;;;;;;;;;;6111997;23;20017;-83
2023/09/26 21:27:37;;;;;;;4.45;4.05;;;;;;;;;;6109862;23;20021;-82